Koenton, Alabama
Current Conditions -  °F | °C
As of 4:13 PM on Sunday 21 Dec 2014 (Local Time) from KMEI Reporting Station
Overcast Overcast  
Wind Chill: 50°   Ceiling: 900
Heat Index: 50°   Visibility: 10mi
Dew Point: 45°   Wind: 7mph
Humidity: 83%   Direction: 70°ENE
Pressure: 30.04"   Gusts: NA
Location:  31.6272°N, 88.354°W
Report Text: KMEI 212213Z 07006KT 10SM OVC009 10/07 A3004 RMK AO2 T01000072
Loading
Personal Weather Stations






























Interactive Weather Map New forecast layout! Learn more

10-Day Weather Forecast

Advertisements
Track Severe Weather on mobile